Time;durP1;ratioP1;P1;durP2;ratioP2;P2;SDS_P1;SDS_P2;PMS_P1;PMS_P2;Temp;Humidity;BMP_temperature;BMP_pressure;BME280_temperature;BME280_humidity;BME280_pressure;Samples;Min_cycle;Max_cycle;Signal;HPM_P1;HPM_P2
2022/08/04 00:00:33;;;;;;;17.92;6.80;;;;;;;;;;5030290;28;20036;-70
2022/08/04 00:03:04;;;;;;;20.17;6.85;;;;;;;;;;5040501;28;20841;-71
2022/08/04 00:05:38;;;;;;;17.33;6.45;;;;;;;;;;5030374;28;20017;-70
2022/08/04 00:08:06;;;;;;;17.80;6.20;;;;;;;;;;5040209;28;20026;-71
2022/08/04 00:10:35;;;;;;;20.38;6.53;;;;;;;;;;5036825;28;20404;-71
2022/08/04 00:13:02;;;;;;;21.05;6.07;;;;;;;;;;5041800;28;20041;-71
2022/08/04 00:15:28;;;;;;;17.50;6.32;;;;;;;;;;5038223;28;20033;-70
2022/08/04 00:17:54;;;;;;;22.25;6.97;;;;;;;;;;5049338;28;20032;-70
2022/08/04 00:20:19;;;;;;;18.65;6.50;;;;;;;;;;5041488;28;20473;-70
2022/08/04 00:22:46;;;;;;;20.05;6.80;;;;;;;;;;5044617;28;20095;-71
2022/08/04 00:25:11;;;;;;;24.00;6.97;;;;;;;;;;5037287;28;20124;-70
2022/08/04 00:27:37;;;;;;;19.42;6.82;;;;;;;;;;5041835;28;20448;-70
2022/08/04 00:30:02;;;;;;;25.77;7.00;;;;;;;;;;5036027;28;20026;-70
2022/08/04 00:32:28;;;;;;;23.17;7.15;;;;;;;;;;5041663;28;20427;-70
2022/08/04 00:34:54;;;;;;;22.00;6.90;;;;;;;;;;5041798;28;20469;-71
2022/08/04 00:37:23;;;;;;;21.48;6.25;;;;;;;;;;5043481;28;20380;-70
2022/08/04 00:39:48;;;;;;;19.38;6.95;;;;;;;;;;5042432;28;20053;-70
2022/08/04 00:42:16;;;;;;;18.92;6.75;;;;;;;;;;5043710;28;20358;-70
2022/08/04 00:44:52;;;;;;;19.52;6.70;;;;;;;;;;5035208;28;20055;-70
2022/08/04 00:47:26;;;;;;;21.20;6.90;;;;;;;;;;5042360;28;20061;-71
2022/08/04 00:49:54;;;;;;;25.98;7.50;;;;;;;;;;5025080;28;20035;-70
2022/08/04 00:52:32;;;;;;;21.17;6.93;;;;;;;;;;5042422;28;20029;-70
2022/08/04 00:55:03;;;;;;;16.23;6.70;;;;;;;;;;5040167;28;20100;-70
2022/08/04 00:57:46;;;;;;;16.55;6.45;;;;;;;;;;5041743;28;20040;-70
2022/08/04 01:00:13;;;;;;;24.05;7.75;;;;;;;;;;5031577;28;20044;-70
2022/08/04 01:02:47;;;;;;;33.60;6.72;;;;;;;;;;5037786;28;20087;-70
2022/08/04 01:05:32;;;;;;;22.23;6.15;;;;;;;;;;5038878;28;20091;-70
2022/08/04 01:08:03;;;;;;;21.85;6.95;;;;;;;;;;5042685;28;20087;-71
2022/08/04 01:10:52;;;;;;;20.10;6.97;;;;;;;;;;5032326;28;20155;-70
2022/08/04 01:13:33;;;;;;;22.10;6.18;;;;;;;;;;5035431;28;20031;-70
2022/08/04 01:16:04;;;;;;;14.52;6.05;;;;;;;;;;5032481;28;20384;-70
2022/08/04 01:18:32;;;;;;;26.83;6.90;;;;;;;;;;5042868;28;20029;-70
2022/08/04 01:21:16;;;;;;;20.80;7.03;;;;;;;;;;5032941;28;20079;-70
2022/08/04 01:23:44;;;;;;;20.55;7.18;;;;;;;;;;5032059;28;20064;-71
2022/08/04 01:26:19;;;;;;;24.88;6.78;;;;;;;;;;5030301;28;20488;-70
2022/08/04 01:28:53;;;;;;;24.63;6.93;;;;;;;;;;5033654;28;20031;-70
2022/08/04 01:31:29;;;;;;;21.00;6.28;;;;;;;;;;5036552;28;20046;-70
2022/08/04 01:33:57;;;;;;;25.42;6.38;;;;;;;;;;5035025;28;20455;-70
2022/08/04 01:36:23;;;;;;;23.50;6.93;;;;;;;;;;5041830;28;20039;-71
2022/08/04 01:38:49;;;;;;;25.13;6.88;;;;;;;;;;5039205;28;20032;-70
2022/08/04 01:41:18;;;;;;;18.77;6.47;;;;;;;;;;5044144;28;20029;-70
2022/08/04 01:43:44;;;;;;;24.67;6.75;;;;;;;;;;5038261;28;20049;-70
2022/08/04 01:46:10;;;;;;;20.58;6.60;;;;;;;;;;5032805;28;20041;-70
2022/08/04 01:48:37;;;;;;;17.20;6.57;;;;;;;;;;5046713;28;20025;-70
2022/08/04 01:51:05;;;;;;;23.65;6.55;;;;;;;;;;5034907;28;20038;-70
2022/08/04 01:53:32;;;;;;;22.98;6.68;;;;;;;;;;5034809;28;20100;-70
2022/08/04 01:55:59;;;;;;;23.02;6.40;;;;;;;;;;5032245;28;20028;-70
2022/08/04 01:58:27;;;;;;;21.77;6.72;;;;;;;;;;5041734;28;20060;-70
2022/08/04 02:00:58;;;;;;;27.65;6.50;;;;;;;;;;5031394;28;20432;-70
2022/08/04 02:03:23;;;;;;;23.27;6.90;;;;;;;;;;5036591;28;20037;-70
2022/08/04 02:05:49;;;;;;;21.95;6.05;;;;;;;;;;5033489;28;20095;-70
2022/08/04 02:08:35;;;;;;;23.23;6.43;;;;;;;;;;5051313;28;20056;-70
2022/08/04 02:11:14;;;;;;;22.67;6.57;;;;;;;;;;5029337;28;20044;-70
2022/08/04 02:14:10;;;;;;;19.55;6.47;;;;;;;;;;5028544;28;20079;-70
2022/08/04 02:16:38;;;;;;;19.92;5.85;;;;;;;;;;5037997;28;20048;-71
2022/08/04 02:19:10;;;;;;;27.90;6.30;;;;;;;;;;5035381;28;20397;-70
2022/08/04 02:21:37;;;;;;;20.25;5.93;;;;;;;;;;5043612;28;20079;-70
2022/08/04 02:24:06;;;;;;;19.88;6.13;;;;;;;;;;5037647;28;20033;-71
2022/08/04 02:26:32;;;;;;;19.45;6.35;;;;;;;;;;5035901;28;20080;-70
2022/08/04 02:29:02;;;;;;;17.60;6.05;;;;;;;;;;5042042;28;20462;-71
2022/08/04 02:31:27;;;;;;;25.98;6.82;;;;;;;;;;5037053;28;20116;-70
2022/08/04 02:34:08;;;;;;;18.25;6.38;;;;;;;;;;5049575;28;20539;-70
2022/08/04 02:36:38;;;;;;;15.23;5.72;;;;;;;;;;5045283;28;20381;-70
2022/08/04 02:39:04;;;;;;;19.77;5.82;;;;;;;;;;5049466;28;20045;-70
2022/08/04 02:41:31;;;;;;;28.42;6.07;;;;;;;;;;5039626;28;20021;-70
2022/08/04 02:43:57;;;;;;;17.33;6.35;;;;;;;;;;5038303;28;20087;-71
2022/08/04 02:46:23;;;;;;;18.40;5.90;;;;;;;;;;5039557;28;20353;-71
2022/08/04 02:48:49;;;;;;;18.08;6.28;;;;;;;;;;5044888;28;20087;-70
2022/08/04 02:51:16;;;;;;;19.08;6.20;;;;;;;;;;5037238;28;20033;-70
2022/08/04 02:53:42;;;;;;;19.15;6.32;;;;;;;;;;5035313;28;20036;-70
2022/08/04 02:56:08;;;;;;;25.02;6.47;;;;;;;;;;5037491;28;20464;-70
2022/08/04 02:58:34;;;;;;;20.15;7.03;;;;;;;;;;5035624;28;20055;-70
2022/08/04 03:01:00;;;;;;;22.35;6.93;;;;;;;;;;5044270;28;20116;-70
2022/08/04 03:03:33;;;;;;;20.60;6.30;;;;;;;;;;5041242;28;20160;-70
2022/08/04 03:06:10;;;;;;;20.65;6.50;;;;;;;;;;5035748;28;20084;-70
2022/08/04 03:08:55;;;;;;;26.35;6.85;;;;;;;;;;5030875;28;20152;-70
2022/08/04 03:11:38;;;;;;;26.77;6.13;;;;;;;;;;5039563;28;20420;-70
2022/08/04 03:14:11;;;;;;;24.10;6.35;;;;;;;;;;5031833;28;20083;-71
2022/08/04 03:16:59;;;;;;;13.47;5.97;;;;;;;;;;5036242;28;20048;-71
2022/08/04 03:19:24;;;;;;;21.67;6.70;;;;;;;;;;5034349;28;20519;-70
2022/08/04 03:22:08;;;;;;;29.83;6.55;;;;;;;;;;5041410;28;20056;-70
2022/08/04 03:24:33;;;;;;;16.38;6.65;;;;;;;;;;5037003;28;20029;-70
2022/08/04 03:26:59;;;;;;;15.75;5.97;;;;;;;;;;5042202;28;20043;-71
2022/08/04 03:29:33;;;;;;;19.88;5.78;;;;;;;;;;5034296;28;20036;-71
2022/08/04 03:32:15;;;;;;;18.10;5.88;;;;;;;;;;5040853;28;20120;-71
2022/08/04 03:34:48;;;;;;;17.67;5.93;;;;;;;;;;5037757;28;20112;-71
2022/08/04 03:37:22;;;;;;;17.63;6.05;;;;;;;;;;5045679;28;20013;-71
2022/08/04 03:39:50;;;;;;;19.23;6.35;;;;;;;;;;5039579;28;20045;-70
2022/08/04 03:42:35;;;;;;;19.10;6.18;;;;;;;;;;5043108;28;20384;-70
2022/08/04 03:45:03;;;;;;;15.00;5.78;;;;;;;;;;5034165;28;20053;-71
2022/08/04 03:47:37;;;;;;;20.23;6.13;;;;;;;;;;5038231;28;20056;-71
2022/08/04 03:50:02;;;;;;;19.85;6.65;;;;;;;;;;5037125;28;20025;-70
2022/08/04 03:55:50;;;;;;;24.13;6.07;;;;;;;;;;5040673;28;20495;-71
2022/08/04 03:58:15;;;;;;;13.45;5.50;;;;;;;;;;5038380;28;20064;-70
2022/08/04 04:00:44;;;;;;;18.02;5.85;;;;;;;;;;5033076;28;20037;-71
2022/08/04 04:03:21;;;;;;;21.38;6.70;;;;;;;;;;5046495;28;20041;-71
2022/08/04 04:05:49;;;;;;;18.85;5.78;;;;;;;;;;5033891;28;20076;-71
2022/08/04 04:08:33;;;;;;;18.08;6.28;;;;;;;;;;5043396;28;20109;-71
2022/08/04 04:11:16;;;;;;;19.20;5.88;;;;;;;;;;5031769;28;20034;-71
2022/08/04 04:13:48;;;;;;;19.20;5.72;;;;;;;;;;5033978;28;20067;-71
2022/08/04 04:16:31;;;;;;;21.23;5.95;;;;;;;;;;5035148;28;20038;-71
2022/08/04 04:18:57;;;;;;;16.45;5.85;;;;;;;;;;5037972;28;20397;-71
2022/08/04 04:21:36;;;;;;;16.90;5.53;;;;;;;;;;5035338;28;20021;-71
2022/08/04 04:24:06;;;;;;;20.40;6.30;;;;;;;;;;5039059;28;20729;-71
2022/08/04 04:26:37;;;;;;;20.88;6.88;;;;;;;;;;5043673;28;20110;-70
2022/08/04 04:29:29;;;;;;;15.48;6.13;;;;;;;;;;5039844;28;20481;-71
2022/08/04 04:31:56;;;;;;;19.77;6.55;;;;;;;;;;5032748;28;20404;-71
2022/08/04 04:34:24;;;;;;;22.13;5.95;;;;;;;;;;5037708;28;20033;-71
2022/08/04 04:36:58;;;;;;;27.00;6.63;;;;;;;;;;5039454;28;20028;-71
2022/08/04 04:39:35;;;;;;;16.85;5.90;;;;;;;;;;5037672;28;20045;-71
2022/08/04 04:42:20;;;;;;;18.40;6.15;;;;;;;;;;5036140;28;20040;-71
2022/08/04 04:44:46;;;;;;;16.17;5.30;;;;;;;;;;5031165;28;20037;-71
2022/08/04 04:47:11;;;;;;;14.40;6.22;;;;;;;;;;5042433;28;20112;-71
2022/08/04 04:49:43;;;;;;;23.40;6.25;;;;;;;;;;5038854;28;20032;-70
2022/08/04 04:52:14;;;;;;;17.02;6.20;;;;;;;;;;5033455;28;20037;-71
2022/08/04 04:54:43;;;;;;;19.77;6.53;;;;;;;;;;5039444;28;20109;-71
2022/08/04 04:57:16;;;;;;;16.20;6.07;;;;;;;;;;5041743;28;20380;-71
2022/08/04 04:59:50;;;;;;;20.35;6.15;;;;;;;;;;5031677;28;20045;-70
2022/08/04 05:02:42;;;;;;;17.17;5.45;;;;;;;;;;5044546;28;20389;-71
2022/08/04 05:05:25;;;;;;;20.10;5.97;;;;;;;;;;5037433;28;20045;-71
2022/08/04 05:07:57;;;;;;;17.13;6.15;;;;;;;;;;5023970;28;20025;-71
2022/08/04 05:10:25;;;;;;;25.98;7.40;;;;;;;;;;5038457;28;20495;-71
2022/08/04 05:13:09;;;;;;;16.92;6.22;;;;;;;;;;5038427;28;20458;-71
2022/08/04 05:15:36;;;;;;;19.30;6.03;;;;;;;;;;5032571;28;20025;-71
2022/08/04 05:18:03;;;;;;;19.63;5.43;;;;;;;;;;5041943;28;20033;-71
2022/08/04 05:20:32;;;;;;;13.20;5.60;;;;;;;;;;5039706;28;20041;-71
2022/08/04 05:23:12;;;;;;;17.63;5.32;;;;;;;;;;5042358;28;20087;-71
2022/08/04 05:25:43;;;;;;;16.67;6.25;;;;;;;;;;5036575;28;20084;-71
2022/08/04 05:28:15;;;;;;;15.85;5.57;;;;;;;;;;5036815;28;20092;-71
2022/08/04 05:30:47;;;;;;;11.35;5.47;;;;;;;;;;5024900;28;20022;-71
2022/08/04 05:33:14;;;;;;;19.02;5.50;;;;;;;;;;5026895;28;20072;-71
2022/08/04 05:35:44;;;;;;;18.10;5.60;;;;;;;;;;5035566;28;20065;-71
2022/08/04 05:38:10;;;;;;;14.50;5.25;;;;;;;;;;5032819;28;20040;-71
2022/08/04 05:40:37;;;;;;;14.75;4.88;;;;;;;;;;5036955;28;20045;-71
2022/08/04 05:43:03;;;;;;;13.98;5.10;;;;;;;;;;5036884;28;20048;-71
2022/08/04 05:45:29;;;;;;;13.05;4.82;;;;;;;;;;5038540;28;20060;-71
2022/08/04 05:47:54;;;;;;;14.75;5.03;;;;;;;;;;5037301;28;20053;-71
2022/08/04 05:50:20;;;;;;;15.23;4.70;;;;;;;;;;5036522;28;20032;-71
2022/08/04 05:52:47;;;;;;;11.02;4.47;;;;;;;;;;5046393;28;20108;-71
2022/08/04 05:55:12;;;;;;;14.10;4.68;;;;;;;;;;5036696;28;20468;-71
2022/08/04 05:57:40;;;;;;;13.00;4.15;;;;;;;;;;5039698;28;20084;-71
2022/08/04 06:00:06;;;;;;;13.88;4.00;;;;;;;;;;5035687;28;20022;-70
2022/08/04 06:02:32;;;;;;;11.50;4.00;;;;;;;;;;5036469;28;20044;-71
2022/08/04 06:04:58;;;;;;;12.80;4.15;;;;;;;;;;5036820;28;20029;-71
2022/08/04 06:07:25;;;;;;;10.85;4.75;;;;;;;;;;5043196;28;20469;-71
2022/08/04 06:09:50;;;;;;;11.40;4.32;;;;;;;;;;5040856;28;20063;-71
2022/08/04 06:12:39;;;;;;;13.45;4.50;;;;;;;;;;5039884;28;20453;-71
2022/08/04 06:15:05;;;;;;;10.57;3.78;;;;;;;;;;5025941;28;20037;-71
2022/08/04 06:17:36;;;;;;;12.23;4.05;;;;;;;;;;5047326;28;20100;-70
2022/08/04 06:20:02;;;;;;;11.90;3.78;;;;;;;;;;5032447;28;20052;-71
2022/08/04 06:22:29;;;;;;;10.75;4.22;;;;;;;;;;5049180;28;20033;-71
2022/08/04 06:24:55;;;;;;;13.48;4.10;;;;;;;;;;5040618;28;20112;-71
2022/08/04 06:27:21;;;;;;;9.07;4.20;;;;;;;;;;5051776;28;20021;-71
2022/08/04 06:29:47;;;;;;;11.57;3.67;;;;;;;;;;5042558;28;20024;-71
2022/08/04 06:33:01;;;;;;;6.93;3.47;;;;;;;;;;5040079;28;20086;-71
2022/08/04 06:35:02;;;;;;;9.48;3.85;;;;;;;;;;5034440;28;20037;-71
2022/08/04 06:37:28;;;;;;;7.88;3.00;;;;;;;;;;5043001;28;20380;-71
2022/08/04 06:39:54;;;;;;;10.45;3.45;;;;;;;;;;5041230;28;20048;-71
2022/08/04 06:42:22;;;;;;;8.45;3.10;;;;;;;;;;5043517;28;20029;-71
2022/08/04 06:44:49;;;;;;;7.43;3.50;;;;;;;;;;5035432;28;20040;-71
2022/08/04 06:47:18;;;;;;;7.95;3.55;;;;;;;;;;5044683;28;20021;-72
2022/08/04 06:49:44;;;;;;;7.68;3.72;;;;;;;;;;5038352;28;20026;-71
2022/08/04 06:52:10;;;;;;;8.18;3.33;;;;;;;;;;5038953;28;20068;-71
2022/08/04 06:54:35;;;;;;;8.25;3.70;;;;;;;;;;5045155;28;20049;-71
2022/08/04 06:57:01;;;;;;;10.02;3.28;;;;;;;;;;5051029;28;20092;-72
2022/08/04 06:59:27;;;;;;;5.30;2.70;;;;;;;;;;5043498;28;20468;-72
2022/08/04 07:01:52;;;;;;;7.35;2.75;;;;;;;;;;5046173;28;20021;-71
2022/08/04 07:04:18;;;;;;;7.68;2.30;;;;;;;;;;5046965;28;20036;-72
2022/08/04 07:06:43;;;;;;;8.80;2.65;;;;;;;;;;5043838;28;20481;-71
2022/08/04 07:09:09;;;;;;;5.65;2.40;;;;;;;;;;5043531;28;20353;-71
2022/08/04 07:11:34;;;;;;;5.75;2.35;;;;;;;;;;5035486;28;20029;-71
2022/08/04 07:14:00;;;;;;;8.43;2.22;;;;;;;;;;5040767;28;20032;-71
2022/08/04 07:16:26;;;;;;;9.13;2.33;;;;;;;;;;5042814;28;20014;-71
2022/08/04 07:18:51;;;;;;;3.78;2.15;;;;;;;;;;5046937;28;20016;-71
2022/08/04 07:21:22;;;;;;;4.50;2.20;;;;;;;;;;5051324;28;20033;-71
2022/08/04 07:23:48;;;;;;;4.40;2.28;;;;;;;;;;5030993;28;20036;-71
2022/08/04 07:26:16;;;;;;;5.03;1.92;;;;;;;;;;5035209;28;20392;-71
2022/08/04 07:28:41;;;;;;;4.97;2.03;;;;;;;;;;5045405;28;20081;-71
2022/08/04 07:31:08;;;;;;;4.13;2.17;;;;;;;;;;5035151;28;20100;-71
2022/08/04 07:33:34;;;;;;;4.78;2.10;;;;;;;;;;5043855;28;20027;-71
2022/08/04 07:35:59;;;;;;;4.53;2.00;;;;;;;;;;5040860;28;20037;-71
2022/08/04 07:38:24;;;;;;;5.80;1.98;;;;;;;;;;5040134;28;20097;-71
2022/08/04 07:40:50;;;;;;;5.88;1.95;;;;;;;;;;5039947;28;20124;-71
2022/08/04 07:43:16;;;;;;;5.32;1.83;;;;;;;;;;5045489;28;20396;-71
2022/08/04 07:45:41;;;;;;;3.85;1.30;;;;;;;;;;5043399;28;20067;-71
2022/08/04 07:48:08;;;;;;;4.18;1.60;;;;;;;;;;5045025;28;20083;-71
2022/08/04 07:50:33;;;;;;;4.10;1.50;;;;;;;;;;5038327;28;20032;-71
2022/08/04 07:52:59;;;;;;;5.10;1.40;;;;;;;;;;5044752;28;20024;-71
2022/08/04 07:55:25;;;;;;;5.25;1.30;;;;;;;;;;5038750;28;20067;-71
2022/08/04 07:57:50;;;;;;;3.45;1.20;;;;;;;;;;5039219;28;20041;-71
2022/08/04 08:00:16;;;;;;;3.50;1.58;;;;;;;;;;5036796;28;20089;-72
2022/08/04 08:02:42;;;;;;;4.93;1.20;;;;;;;;;;5034664;28;20032;-71
2022/08/04 08:05:12;;;;;;;3.70;1.00;;;;;;;;;;5035335;28;20029;-71
2022/08/04 08:07:38;;;;;;;3.08;1.10;;;;;;;;;;5035036;28;20010;-71
2022/08/04 08:10:03;;;;;;;3.90;1.08;;;;;;;;;;5049537;28;20021;-71
2022/08/04 08:12:30;;;;;;;5.70;1.08;;;;;;;;;;5042445;28;20037;-71
2022/08/04 08:14:56;;;;;;;6.57;1.90;;;;;;;;;;5046352;28;20021;-72
2022/08/04 08:17:21;;;;;;;3.33;0.90;;;;;;;;;;5044179;28;20089;-72
2022/08/04 08:19:47;;;;;;;2.58;1.10;;;;;;;;;;5048875;28;20036;-72
2022/08/04 08:22:12;;;;;;;2.88;1.10;;;;;;;;;;5043367;28;20538;-71
2022/08/04 08:24:38;;;;;;;3.30;1.10;;;;;;;;;;5048012;28;20048;-72
2022/08/04 08:27:03;;;;;;;6.25;1.17;;;;;;;;;;5037012;28;20044;-72
2022/08/04 08:29:29;;;;;;;3.63;1.17;;;;;;;;;;5046794;28;20456;-72
2022/08/04 08:31:55;;;;;;;4.88;1.00;;;;;;;;;;5036431;28;20025;-72
2022/08/04 08:34:20;;;;;;;5.40;1.10;;;;;;;;;;5038910;28;20029;-72
2022/08/04 08:36:47;;;;;;;4.22;1.02;;;;;;;;;;5046457;28;20039;-72
2022/08/04 08:39:30;;;;;;;2.90;1.00;;;;;;;;;;5036137;28;20050;-72
2022/08/04 08:42:15;;;;;;;2.30;0.98;;;;;;;;;;5038062;28;20115;-72
2022/08/04 08:44:58;;;;;;;3.10;1.05;;;;;;;;;;5040941;28;20032;-73
2022/08/04 08:47:56;;;;;;;3.25;1.05;;;;;;;;;;5046450;28;20037;-73
2022/08/04 08:50:27;;;;;;;3.35;0.98;;;;;;;;;;5029755;28;20476;-73
2022/08/04 08:53:01;;;;;;;4.45;1.10;;;;;;;;;;5040802;28;20080;-73
2022/08/04 08:55:48;;;;;;;3.45;1.10;;;;;;;;;;5050120;28;20017;-73
2022/08/04 08:58:31;;;;;;;2.85;0.98;;;;;;;;;;5048251;28;20040;-73
2022/08/04 09:01:16;;;;;;;3.17;0.90;;;;;;;;;;5036964;28;20025;-73
2022/08/04 09:04:00;;;;;;;3.45;1.27;;;;;;;;;;5035368;28;20148;-73
2022/08/04 09:06:34;;;;;;;3.20;1.17;;;;;;;;;;5040277;28;20143;-73
2022/08/04 09:09:07;;;;;;;9.70;1.40;;;;;;;;;;5027499;28;20029;-71
2022/08/04 09:11:38;;;;;;;3.55;1.35;;;;;;;;;;5034175;28;20457;-71
2022/08/04 09:14:16;;;;;;;4.82;1.30;;;;;;;;;;5015150;28;20045;-71
2022/08/04 09:16:46;;;;;;;4.05;1.20;;;;;;;;;;5034519;28;20022;-71
2022/08/04 09:19:13;;;;;;;3.78;1.20;;;;;;;;;;5032279;28;20079;-72
2022/08/04 09:21:59;;;;;;;2.80;1.10;;;;;;;;;;5039589;28;20095;-71
2022/08/04 09:24:44;;;;;;;6.70;1.40;;;;;;;;;;5027862;28;20045;-71
2022/08/04 09:27:09;;;;;;;2.90;1.10;;;;;;;;;;5042369;28;20048;-71
2022/08/04 09:29:34;;;;;;;4.47;1.27;;;;;;;;;;5042729;28;20037;-71
2022/08/04 09:32:15;;;;;;;5.75;1.20;;;;;;;;;;5044608;28;20028;-71
2022/08/04 09:34:41;;;;;;;3.83;1.00;;;;;;;;;;5044991;28;20029;-71
2022/08/04 09:37:13;;;;;;;5.60;1.10;;;;;;;;;;5040351;28;20022;-71
2022/08/04 09:39:45;;;;;;;4.88;1.10;;;;;;;;;;5045251;28;20041;-71
2022/08/04 09:42:18;;;;;;;2.90;0.87;;;;;;;;;;5049636;28;20033;-71
2022/08/04 09:44:44;;;;;;;5.80;1.00;;;;;;;;;;5036474;28;20029;-72
2022/08/04 09:47:13;;;;;;;5.03;1.17;;;;;;;;;;5036040;28;20105;-73
2022/08/04 09:49:57;;;;;;;2.88;1.00;;;;;;;;;;5037879;28;20756;-73
2022/08/04 09:52:26;;;;;;;3.33;1.13;;;;;;;;;;5025354;28;20128;-72
2022/08/04 09:54:55;;;;;;;4.05;1.00;;;;;;;;;;5029533;28;20384;-73
2022/08/04 09:57:25;;;;;;;4.05;1.10;;;;;;;;;;5040305;28;20276;-73
2022/08/04 09:59:59;;;;;;;4.10;1.23;;;;;;;;;;5046371;28;20021;-73
2022/08/04 10:02:28;;;;;;;2.45;1.02;;;;;;;;;;5031678;28;20492;-72
2022/08/04 10:04:54;;;;;;;3.28;1.00;;;;;;;;;;5049917;28;20111;-73
2022/08/04 10:07:40;;;;;;;2.28;0.82;;;;;;;;;;5038753;28;20036;-73
2022/08/04 10:10:11;;;;;;;5.18;1.10;;;;;;;;;;5035548;28;20033;-72
2022/08/04 10:12:37;;;;;;;4.05;1.20;;;;;;;;;;5034692;28;20140;-72
2022/08/04 10:15:09;;;;;;;3.80;1.10;;;;;;;;;;5039280;28;20575;-72
2022/08/04 10:17:37;;;;;;;3.55;0.93;;;;;;;;;;5045949;28;20036;-72
2022/08/04 10:20:07;;;;;;;3.45;0.90;;;;;;;;;;5042149;28;20063;-72
2022/08/04 10:22:37;;;;;;;4.10;1.20;;;;;;;;;;5039779;28;20025;-72
2022/08/04 10:25:21;;;;;;;3.55;1.08;;;;;;;;;;5042042;28;20029;-72
2022/08/04 10:27:47;;;;;;;7.18;1.00;;;;;;;;;;5043770;28;20104;-73
2022/08/04 10:30:13;;;;;;;10.30;1.27;;;;;;;;;;5039051;28;20531;-72
2022/08/04 10:32:57;;;;;;;5.22;1.17;;;;;;;;;;5041670;28;20044;-72
2022/08/04 10:35:25;;;;;;;6.05;1.13;;;;;;;;;;5042872;28;20384;-73
2022/08/04 10:38:14;;;;;;;7.10;0.90;;;;;;;;;;5043147;28;20033;-72
2022/08/04 10:40:44;;;;;;;4.35;1.00;;;;;;;;;;5038707;28;20049;-72
2022/08/04 10:43:12;;;;;;;2.63;0.90;;;;;;;;;;5039117;28;20044;-72
2022/08/04 10:45:49;;;;;;;2.25;0.75;;;;;;;;;;5042047;28;20479;-72
2022/08/04 10:48:21;;;;;;;4.68;1.17;;;;;;;;;;5023455;28;20420;-72
2022/08/04 10:50:51;;;;;;;5.20;1.23;;;;;;;;;;5045791;28;20037;-72
2022/08/04 10:53:19;;;;;;;3.80;0.77;;;;;;;;;;5047799;28;20052;-72
2022/08/04 10:56:01;;;;;;;3.40;0.70;;;;;;;;;;5034453;28;20112;-71
2022/08/04 10:58:29;;;;;;;1.87;0.70;;;;;;;;;;5036105;28;20033;-71
2022/08/04 11:00:58;;;;;;;4.43;1.00;;;;;;;;;;5050453;28;20064;-71
2022/08/04 11:03:30;;;;;;;6.82;1.10;;;;;;;;;;5037611;28;20451;-72
2022/08/04 11:06:01;;;;;;;2.55;0.80;;;;;;;;;;5050597;28;20159;-72
2022/08/04 11:08:34;;;;;;;2.53;0.70;;;;;;;;;;5048492;28;20029;-72
2022/08/04 11:11:05;;;;;;;3.10;1.00;;;;;;;;;;5047813;28;20089;-71
2022/08/04 11:13:43;;;;;;;1.70;0.75;;;;;;;;;;5042733;28;20063;-71
2022/08/04 11:16:11;;;;;;;2.42;1.00;;;;;;;;;;5034737;28;20028;-71
2022/08/04 11:18:46;;;;;;;5.28;0.95;;;;;;;;;;5048801;28;20067;-71
2022/08/04 11:21:15;;;;;;;4.20;1.00;;;;;;;;;;5044369;28;20480;-71
2022/08/04 11:23:43;;;;;;;1.73;0.60;;;;;;;;;;5046165;28;20037;-71
2022/08/04 11:26:11;;;;;;;3.13;0.88;;;;;;;;;;5024832;28;20021;-72
2022/08/04 11:28:49;;;;;;;3.75;1.05;;;;;;;;;;5030828;28;20036;-71
2022/08/04 11:31:34;;;;;;;3.33;0.90;;;;;;;;;;5033619;28;20104;-71
2022/08/04 11:34:03;;;;;;;3.55;0.90;;;;;;;;;;5039264;28;20172;-72
2022/08/04 11:36:28;;;;;;;3.50;0.80;;;;;;;;;;5030370;28;20437;-72
2022/08/04 11:39:26;;;;;;;1.35;0.55;;;;;;;;;;5035920;28;20091;-71
2022/08/04 11:41:55;;;;;;;2.60;0.82;;;;;;;;;;5011441;28;20488;-71
2022/08/04 11:44:39;;;;;;;5.18;1.20;;;;;;;;;;5038826;28;20064;-71
2022/08/04 11:47:08;;;;;;;2.25;0.75;;;;;;;;;;5027925;28;20396;-72
2022/08/04 11:49:42;;;;;;;2.88;0.85;;;;;;;;;;5035508;28;20040;-71
2022/08/04 11:52:11;;;;;;;2.40;0.70;;;;;;;;;;5024585;28;20036;-72
2022/08/04 11:54:37;;;;;;;1.02;0.50;;;;;;;;;;5032264;28;20036;-72
2022/08/04 11:57:03;;;;;;;3.22;0.82;;;;;;;;;;5029670;28;20024;-71
2022/08/04 11:59:30;;;;;;;3.83;0.90;;;;;;;;;;5031786;28;20542;-72
2022/08/04 12:02:10;;;;;;;2.85;0.70;;;;;;;;;;5036069;28;20401;-72
2022/08/04 12:04:54;;;;;;;5.47;0.70;;;;;;;;;;5042540;28;20040;-72
2022/08/04 12:07:22;;;;;;;2.47;0.60;;;;;;;;;;5044577;28;20025;-72
2022/08/04 12:09:55;;;;;;;1.85;0.77;;;;;;;;;;5044286;28;20037;-72
2022/08/04 12:12:26;;;;;;;2.60;0.70;;;;;;;;;;5043799;28;20118;-72
2022/08/04 12:15:11;;;;;;;3.33;1.48;;;;;;;;;;5036688;28;20073;-72
2022/08/04 12:17:43;;;;;;;1.88;0.60;;;;;;;;;;5030772;28;20090;-72
2022/08/04 12:20:11;;;;;;;2.67;0.60;;;;;;;;;;5039212;28;20033;-71
2022/08/04 12:22:47;;;;;;;2.42;0.73;;;;;;;;;;5033443;28;20049;-71
2022/08/04 12:25:18;;;;;;;4.32;0.85;;;;;;;;;;5034320;28;20021;-71
2022/08/04 12:27:44;;;;;;;2.25;0.75;;;;;;;;;;5028544;28;20072;-72
2022/08/04 12:30:10;;;;;;;2.70;0.65;;;;;;;;;;5030932;28;20483;-71
2022/08/04 12:32:37;;;;;;;1.30;0.65;;;;;;;;;;5032112;28;20091;-71
2022/08/04 12:35:23;;;;;;;2.10;0.70;;;;;;;;;;5029508;28;20037;-71
2022/08/04 12:38:10;;;;;;;5.22;0.60;;;;;;;;;;5029290;28;20101;-71
2022/08/04 12:40:39;;;;;;;2.88;0.70;;;;;;;;;;5036408;28;20048;-71
2022/08/04 12:43:12;;;;;;;1.60;0.68;;;;;;;;;;5038486;28;20033;-71
2022/08/04 12:45:43;;;;;;;3.58;0.95;;;;;;;;;;5045637;28;20033;-71
2022/08/04 12:48:08;;;;;;;3.03;0.88;;;;;;;;;;5033057;28;20036;-71
2022/08/04 12:50:35;;;;;;;2.05;0.65;;;;;;;;;;5037218;28;20029;-71
2022/08/04 12:53:01;;;;;;;3.10;0.70;;;;;;;;;;5033139;28;20060;-71
2022/08/04 12:55:28;;;;;;;4.57;1.17;;;;;;;;;;5032219;28;20077;-71
2022/08/04 12:57:54;;;;;;;2.10;0.93;;;;;;;;;;5037926;28;20048;-71
2022/08/04 13:00:27;;;;;;;1.35;0.50;;;;;;;;;;5040768;28;20028;-71
2022/08/04 13:02:53;;;;;;;5.70;0.90;;;;;;;;;;5043330;28;20033;-71
2022/08/04 13:05:19;;;;;;;1.80;0.60;;;;;;;;;;5034651;28;20030;-71
2022/08/04 13:07:47;;;;;;;2.13;0.75;;;;;;;;;;5041427;28;20017;-72
2022/08/04 13:10:14;;;;;;;1.60;0.70;;;;;;;;;;5029202;28;20420;-71
2022/08/04 13:12:40;;;;;;;1.80;0.60;;;;;;;;;;5041304;28;20551;-71
2022/08/04 13:15:16;;;;;;;1.88;0.75;;;;;;;;;;5029365;28;20397;-71
2022/08/04 13:18:07;;;;;;;3.17;0.75;;;;;;;;;;5034160;28;20055;-72
2022/08/04 13:20:33;;;;;;;1.75;0.80;;;;;;;;;;5022908;28;20042;-71
2022/08/04 13:23:02;;;;;;;2.78;0.98;;;;;;;;;;5036730;28;20419;-72
2022/08/04 13:25:29;;;;;;;1.67;0.60;;;;;;;;;;5036532;28;20113;-71
2022/08/04 13:27:54;;;;;;;2.92;0.65;;;;;;;;;;5031537;28;20025;-71
2022/08/04 13:30:20;;;;;;;0.50;0.50;;;;;;;;;;5029429;28;20056;-71
2022/08/04 13:32:46;;;;;;;1.65;0.65;;;;;;;;;;5025275;28;20041;-72
2022/08/04 13:35:12;;;;;;;0.80;0.60;;;;;;;;;;5040634;28;20041;-71
2022/08/04 13:37:38;;;;;;;1.75;0.60;;;;;;;;;;5038941;28;20065;-71
2022/08/04 13:40:05;;;;;;;1.77;0.63;;;;;;;;;;5039340;28;20138;-71
2022/08/04 13:42:32;;;;;;;1.38;0.65;;;;;;;;;;5038718;28;20151;-72
2022/08/04 13:44:59;;;;;;;9.80;1.00;;;;;;;;;;5035250;28;20033;-71
2022/08/04 13:47:27;;;;;;;4.55;0.70;;;;;;;;;;5035981;28;20373;-71
2022/08/04 13:50:08;;;;;;;4.15;1.15;;;;;;;;;;5038503;28;20135;-71
2022/08/04 13:52:33;;;;;;;4.47;0.57;;;;;;;;;;5020196;28;20073;-72
2022/08/04 13:54:59;;;;;;;2.05;0.50;;;;;;;;;;5038299;28;20139;-71
2022/08/04 13:57:29;;;;;;;2.22;0.60;;;;;;;;;;5036730;28;20022;-71
2022/08/04 13:59:57;;;;;;;1.15;0.60;;;;;;;;;;5040816;28;20036;-71
2022/08/04 14:02:28;;;;;;;1.23;0.70;;;;;;;;;;5036049;28;20115;-72
2022/08/04 14:04:56;;;;;;;2.05;0.60;;;;;;;;;;5033651;28;20476;-71
2022/08/04 14:07:24;;;;;;;1.75;0.57;;;;;;;;;;5032182;28;20034;-71
2022/08/04 14:09:49;;;;;;;3.53;0.60;;;;;;;;;;5043350;28;20499;-72
2022/08/04 14:12:15;;;;;;;2.22;0.73;;;;;;;;;;5036840;28;20014;-71
2022/08/04 14:14:45;;;;;;;2.45;0.70;;;;;;;;;;5043033;28;20111;-71
2022/08/04 14:17:12;;;;;;;3.38;0.60;;;;;;;;;;5035023;28;20068;-72
2022/08/04 14:19:49;;;;;;;2.97;0.50;;;;;;;;;;5033160;28;20500;-71
2022/08/04 14:22:24;;;;;;;1.98;0.60;;;;;;;;;;5036801;28;20542;-71
2022/08/04 14:24:54;;;;;;;0.73;0.50;;;;;;;;;;5040109;28;20038;-71
2022/08/04 14:27:19;;;;;;;1.35;0.47;;;;;;;;;;5046740;28;20100;-71
2022/08/04 14:29:45;;;;;;;2.30;0.45;;;;;;;;;;5044611;28;20132;-71
2022/08/04 14:32:10;;;;;;;1.65;0.60;;;;;;;;;;5051017;28;20104;-71
2022/08/04 14:34:37;;;;;;;3.83;0.50;;;;;;;;;;5038342;28;20116;-71
2022/08/04 14:37:06;;;;;;;1.73;0.57;;;;;;;;;;5040230;28;20063;-71
2022/08/04 14:39:36;;;;;;;2.72;0.60;;;;;;;;;;5038416;28;20045;-71
2022/08/04 14:42:02;;;;;;;1.75;0.70;;;;;;;;;;5040077;28;20025;-71
2022/08/04 14:44:28;;;;;;;0.95;0.50;;;;;;;;;;5037810;28;20033;-71
2022/08/04 14:46:55;;;;;;;1.08;0.57;;;;;;;;;;5034953;28;20092;-72
2022/08/04 14:49:20;;;;;;;0.80;0.50;;;;;;;;;;5041918;28;20075;-71
2022/08/04 14:51:54;;;;;;;1.75;0.80;;;;;;;;;;5043991;28;20472;-71
2022/08/04 14:54:19;;;;;;;;;;;;;;;;;;5046123;28;20533;-71
2022/08/04 14:56:50;;;;;;;1.90;0.55;;;;;;;;;;5035959;28;19909;-72
2022/08/04 14:59:16;;;;;;;1.30;0.50;;;;;;;;;;5031324;28;20025;-71
2022/08/04 15:01:42;;;;;;;0.98;0.52;;;;;;;;;;5044363;28;20050;-72